Time;durP1;ratioP1;P1;durP2;ratioP2;P2;SDS_P1;SDS_P2;PMS_P1;PMS_P2;Temp;Humidity;BMP_temperature;BMP_pressure;BME280_temperature;BME280_humidity;BME280_pressure;Samples;Min_cycle;Max_cycle;Signal;HPM_P1;HPM_P2
2021/10/23 00:00:35;;;;;;;45.80;33.28;;;;;;;10.94;100.00;100799.59;1752589;80;21052;-95
2021/10/23 00:03:03;;;;;;;43.58;34.75;;;;;;;10.97;100.00;100793.35;1753027;80;20988;-95
2021/10/23 00:16:13;;;;;;;47.60;33.13;;;;;;;11.16;100.00;100794.11;1738697;77;21498;-90
2021/10/23 00:19:12;;;;;;;52.40;35.27;;;;;;;11.24;100.00;100783.95;1701119;78;22384;31
2021/10/23 00:21:41;;;;;;;55.58;34.53;;;;;;;11.29;100.00;100782.30;1732295;79;21119;-89
2021/10/23 00:24:08;;;;;;;57.62;34.85;;;;;;;11.30;100.00;100773.50;1741680;78;21536;-95
2021/10/23 00:26:35;;;;;;;46.73;33.23;;;;;;;11.23;100.00;100777.06;1773975;80;21127;-92
2021/10/23 00:29:02;;;;;;;45.67;33.67;;;;;;;11.18;100.00;100772.20;1743719;80;21038;-91
2021/10/23 00:31:29;;;;;;;43.60;32.30;;;;;;;11.14;100.00;100774.66;1774222;80;21056;-95
2021/10/23 00:33:56;;;;;;;42.08;32.58;;;;;;;11.08;100.00;100766.49;1774330;80;21050;-92
2021/10/23 00:36:25;;;;;;;47.38;32.73;;;;;;;11.03;100.00;100758.53;1774694;80;21089;-94
2021/10/23 00:38:52;;;;;;;51.02;34.25;;;;;;;10.97;100.00;100757.69;1774115;80;21127;-96
2021/10/23 00:41:19;;;;;;;44.93;32.98;;;;;;;10.88;100.00;100750.55;1743091;80;21053;-93
2021/10/23 00:43:47;;;;;;;43.28;32.67;;;;;;;10.80;100.00;100747.69;1774582;80;21045;-95
2021/10/23 00:46:16;;;;;;;45.98;31.87;;;;;;;10.79;100.00;100743.42;1765940;80;21015;-96
2021/10/23 00:48:45;;;;;;;45.73;32.08;;;;;;;10.71;100.00;100750.03;1806950;79;21401;-91
2021/10/23 00:51:15;;;;;;;45.65;32.10;;;;;;;10.65;100.00;100749.19;1775697;79;21131;-94
2021/10/23 00:53:43;;;;;;;48.15;33.95;;;;;;;10.59;100.00;100757.45;1808377;79;21025;-95
2021/10/23 00:56:10;;;;;;;42.48;33.15;;;;;;;10.50;100.00;100751.61;1805619;79;21049;-95
2021/10/23 00:58:39;;;;;;;42.70;31.42;;;;;;;10.44;100.00;100752.06;1774443;79;21041;-93
2021/10/23 01:01:06;;;;;;;42.27;32.80;;;;;;;10.41;100.00;100747.42;1807226;79;21045;-95
2021/10/23 01:03:33;;;;;;;48.63;32.63;;;;;;;10.39;100.00;100748.00;1808401;79;21142;-92
2021/10/23 01:06:01;;;;;;;45.67;33.02;;;;;;;10.39;100.00;100749.30;1808535;79;21073;-94
2021/10/23 01:08:29;;;;;;;46.98;34.18;;;;;;;10.36;100.00;100752.11;1809167;79;21014;-94
2021/10/23 01:10:56;;;;;;;42.35;32.73;;;;;;;10.38;100.00;100755.45;1808136;79;20967;-92
2021/10/23 01:13:24;;;;;;;44.50;32.30;;;;;;;10.38;100.00;100754.63;1805878;79;21049;-93
2021/10/23 01:15:52;;;;;;;42.78;32.50;;;;;;;10.38;100.00;100752.02;1741765;81;21084;-94
2021/10/23 01:18:19;;;;;;;45.25;31.68;;;;;;;10.35;100.00;100759.56;1760363;79;21089;-95
2021/10/23 01:20:46;;;;;;;40.65;30.68;;;;;;;10.35;100.00;100754.35;1786625;80;21037;-95
2021/10/23 01:23:13;;;;;;;48.20;33.18;;;;;;;10.28;100.00;100754.89;1793588;79;22011;-95
2021/10/23 01:25:40;;;;;;;43.17;32.23;;;;;;;10.23;100.00;100765.17;1807896;78;21025;-94
2021/10/23 01:28:07;;;;;;;43.33;31.57;;;;;;;10.27;100.00;100759.27;1784753;79;21115;-95
2021/10/23 01:30:34;;;;;;;45.83;31.50;;;;;;;10.23;100.00;100753.91;1778387;79;21095;-94
2021/10/23 01:33:01;;;;;;;65.32;31.42;;;;;;;10.17;100.00;100760.86;1784524;80;21053;-95
2021/10/23 01:35:30;;;;;;;46.28;32.45;;;;;;;10.10;100.00;100763.91;1809122;78;21621;-93
2021/10/23 01:37:58;;;;;;;52.60;33.08;;;;;;;10.12;100.00;100761.19;1776313;80;21067;-94
2021/10/23 01:40:35;;;;;;;47.40;31.45;;;;;;;10.03;100.00;100753.58;1777686;80;21027;-96
2021/10/23 01:43:02;;;;;;;44.45;32.13;;;;;;;9.94;100.00;100754.22;1778086;80;21575;-91
2021/10/23 01:45:29;;;;;;;45.88;31.07;;;;;;;9.84;100.00;100750.14;1777451;80;21026;-91
2021/10/23 01:47:57;;;;;;;40.88;29.60;;;;;;;9.78;100.00;100753.99;1777221;80;21519;-96
2021/10/23 01:50:27;;;;;;;47.70;30.75;;;;;;;9.74;100.00;100753.83;1776562;80;21022;-94
2021/10/23 01:52:55;;;;;;;43.92;31.00;;;;;;;9.69;100.00;100755.93;1776305;80;21171;-94
2021/10/23 01:55:23;;;;;;;39.03;29.07;;;;;;;9.67;100.00;100760.88;1776195;80;21499;-93
2021/10/23 01:57:50;;;;;;;41.60;29.52;;;;;;;9.64;100.00;100758.03;1776309;80;21530;-95
2021/10/23 02:00:18;;;;;;;37.83;28.73;;;;;;;9.61;100.00;100759.05;1746662;80;21003;-96
2021/10/23 02:02:45;;;;;;;42.62;28.42;;;;;;;9.64;100.00;100759.33;1778147;80;21038;-96
2021/10/23 02:05:13;;;;;;;35.75;27.32;;;;;;;9.69;100.00;100755.93;1779198;80;21129;-96
2021/10/23 02:07:40;;;;;;;35.58;28.17;;;;;;;9.78;100.00;100755.30;1778190;80;20939;-96
2021/10/23 02:10:09;;;;;;;40.00;28.20;;;;;;;9.85;100.00;100753.11;1776516;80;21121;-94
2021/10/23 02:12:37;;;;;;;43.92;28.90;;;;;;;9.87;100.00;100754.30;1777005;80;21073;-93
2021/10/23 02:15:05;;;;;;;38.65;28.15;;;;;;;9.89;100.00;100754.54;1746250;80;20982;-93
2021/10/23 02:17:33;;;;;;;43.87;29.00;;;;;;;9.91;100.00;100747.92;1776540;80;21158;-96
2021/10/23 02:20:04;;;;;;;42.08;27.90;;;;;;;9.90;100.00;100751.00;1776996;80;21033;-95
2021/10/23 02:22:31;;;;;;;40.10;27.57;;;;;;;9.93;100.00;100755.16;1777024;80;21089;-90
2021/10/23 02:24:58;;;;;;;40.05;28.17;;;;;;;9.91;100.00;100755.27;1776639;80;21544;-88
2021/10/23 02:27:26;;;;;;;37.10;26.65;;;;;;;9.91;100.00;100766.13;1775756;80;21068;-89
2021/10/23 02:29:57;;;;;;;40.12;27.32;;;;;;;9.93;100.00;100762.96;1777915;80;21161;-93
2021/10/23 02:32:25;;;;;;;37.93;26.35;;;;;;;9.95;100.00;100759.30;1783089;80;21131;-94
2021/10/23 02:34:53;;;;;;;35.45;25.80;;;;;;;9.99;100.00;100758.62;1784331;80;21007;-94
2021/10/23 02:37:20;;;;;;;35.23;25.48;;;;;;;10.04;100.00;100767.41;1780388;78;21858;-96
2021/10/23 02:39:51;;;;;;;36.00;24.98;;;;;;;10.07;100.00;100775.82;1774540;80;21041;-95
2021/10/23 02:42:29;;;;;;;39.10;26.62;;;;;;;10.10;100.00;100770.41;1707916;83;22307;-89
2021/10/23 02:44:56;;;;;;;32.55;24.47;;;;;;;10.15;100.00;100765.34;1721458;80;21102;-87
2021/10/23 02:47:23;;;;;;;36.50;25.50;;;;;;;10.20;100.00;100774.97;1728531;83;21028;-90
2021/10/23 02:49:51;;;;;;;32.10;25.17;;;;;;;10.23;100.00;100769.53;1747107;80;21058;-93
2021/10/23 02:52:20;;;;;;;35.83;25.57;;;;;;;10.26;100.00;100775.83;1778419;80;21161;-95
2021/10/23 02:54:48;;;;;;;39.10;24.60;;;;;;;10.28;100.00;100775.70;1747860;80;21100;-95
2021/10/23 02:57:15;;;;;;;39.98;25.32;;;;;;;10.30;100.00;100777.73;1804844;78;21089;-90
2021/10/23 02:59:44;;;;;;;30.05;24.70;;;;;;;10.34;100.00;100780.47;1811362;79;21056;-91
2021/10/23 03:02:13;;;;;;;34.43;23.83;;;;;;;10.36;100.00;100780.75;1811729;79;21077;-93
2021/10/23 03:04:42;;;;;;;;;;;;;;;10.38;100.00;100781.48;1784948;79;21065;-90
2021/10/23 03:07:10;;;;;;;41.00;26.45;;;;;;;10.44;100.00;100776.30;1811879;79;21127;-92
2021/10/23 03:09:37;;;;;;;38.25;26.33;;;;;;;10.51;100.00;100771.02;1799174;79;21002;-96
2021/10/23 03:12:07;;;;;;;33.28;25.02;;;;;;;10.54;100.00;100766.89;1736264;81;21475;-94
2021/10/23 03:14:36;;;;;;;33.30;25.62;;;;;;;10.52;100.00;100766.66;1715875;83;21110;-94
2021/10/23 03:17:04;;;;;;;35.70;26.60;;;;;;;10.47;100.00;100764.84;1740843;81;21088;-92
2021/10/23 03:19:33;;;;;;;35.95;26.17;;;;;;;10.44;100.00;100758.56;1811332;79;21594;-93
2021/10/23 03:22:01;;;;;;;35.75;26.95;;;;;;;10.41;100.00;100753.94;1807347;79;21112;-91
2021/10/23 03:24:33;;;;;;;33.60;25.92;;;;;;;10.39;100.00;100750.60;1810628;79;21065;-93
2021/10/23 03:27:01;;;;;;;41.15;27.13;;;;;;;10.40;100.00;100747.55;1780136;79;21084;-94
2021/10/23 03:29:28;;;;;;;40.33;26.80;;;;;;;10.38;100.00;100750.23;1813189;78;21087;-92
2021/10/23 03:31:55;;;;;;;44.73;27.45;;;;;;;10.38;100.00;100756.75;1792412;78;21088;-92
2021/10/23 03:34:37;;;;;;;36.53;27.32;;;;;;;10.41;100.00;100752.63;1751185;77;21272;31
2021/10/23 03:37:04;;;;;;;38.83;27.87;;;;;;;10.49;100.00;100758.59;1711132;80;21128;-95
2021/10/23 03:39:32;;;;;;;39.13;28.38;;;;;;;10.62;100.00;100757.20;1791721;80;21068;-91
2021/10/23 03:42:01;;;;;;;35.52;28.17;;;;;;;10.70;100.00;100752.75;1762317;80;21060;-89
2021/10/23 03:44:29;;;;;;;42.17;29.48;;;;;;;10.73;100.00;100748.15;1750499;81;21175;-96
2021/10/23 03:46:57;;;;;;;41.08;29.98;;;;;;;10.82;100.00;100754.92;1741765;81;21063;-93
2021/10/23 03:49:27;;;;;;;44.45;27.75;;;;;;;10.86;100.00;100742.86;1817067;78;21128;-89
2021/10/23 03:51:55;;;;;;;81.72;29.80;;;;;;;10.87;100.00;100744.53;1818570;78;21005;-88
2021/10/23 03:54:22;;;;;;;40.03;28.77;;;;;;;10.88;100.00;100739.69;1818423;78;21072;-89
2021/10/23 03:56:50;;;;;;;36.88;27.75;;;;;;;10.93;100.00;100742.40;1817901;78;21200;-90
2021/10/23 03:59:17;;;;;;;37.95;29.32;;;;;;;10.94;100.00;100742.27;1818562;78;21026;-89
2021/10/23 04:01:44;;;;;;;35.28;28.40;;;;;;;10.95;100.00;100729.61;1788647;78;21046;-89
2021/10/23 04:04:11;;;;;;;33.98;27.98;;;;;;;10.95;100.00;100737.42;1797645;78;21006;-90
2021/10/23 04:06:38;;;;;;;38.17;29.85;;;;;;;10.97;100.00;100739.45;1784521;80;21097;-89
2021/10/23 04:09:05;;;;;;;37.90;27.70;;;;;;;10.99;100.00;100747.99;1754282;80;21219;-88
2021/10/23 04:11:33;;;;;;;37.20;29.42;;;;;;;11.01;100.00;100753.08;1753838;80;21144;-89
2021/10/23 04:14:00;;;;;;;36.93;28.38;;;;;;;11.04;100.00;100761.98;1785979;78;21155;-96
2021/10/23 04:16:28;;;;;;;42.48;30.90;;;;;;;11.09;100.00;100760.34;1785641;79;21604;-92
2021/10/23 04:18:57;;;;;;;42.58;30.35;;;;;;;11.11;100.00;100764.94;1785583;80;21099;-96
2021/10/23 04:21:24;;;;;;;42.10;30.50;;;;;;;11.11;100.00;100770.16;1785074;80;21130;-95
2021/10/23 04:23:52;;;;;;;36.28;29.05;;;;;;;11.14;100.00;100769.94;1785124;80;21058;-95
2021/10/23 04:26:19;;;;;;;43.73;31.27;;;;;;;11.16;100.00;100771.95;1785079;80;21018;-93
2021/10/23 04:28:47;;;;;;;50.80;31.87;;;;;;;11.16;100.00;100780.59;1754810;80;21018;-95
2021/10/23 04:31:14;;;;;;;52.93;34.15;;;;;;;11.17;100.00;100778.84;1786005;80;21058;-95
2021/10/23 04:33:41;;;;;;;48.50;33.95;;;;;;;11.17;100.00;100786.66;1791536;78;21088;-93
2021/10/23 04:36:08;;;;;;;54.48;38.15;;;;;;;11.18;100.00;100784.38;1789131;79;21516;-96
2021/10/23 04:38:35;;;;;;;50.75;39.13;;;;;;;11.17;100.00;100793.98;1782574;80;20986;-93
2021/10/23 04:41:04;;;;;;;55.05;41.23;;;;;;;11.15;100.00;100798.48;1781744;80;21113;-94
2021/10/23 04:43:31;;;;;;;48.87;40.33;;;;;;;11.13;100.00;100788.66;1778021;78;21104;-95
2021/10/23 04:46:00;;;;;;;56.35;43.10;;;;;;;11.12;100.00;100790.06;1780907;78;21622;-96
2021/10/23 04:48:27;;;;;;;59.08;44.30;;;;;;;11.10;100.00;100801.06;1783748;79;21076;-96
2021/10/23 04:50:55;;;;;;;54.75;43.78;;;;;;;11.09;100.00;100809.85;1785303;80;21095;-91
2021/10/23 04:53:23;;;;;;;54.77;43.60;;;;;;;11.08;100.00;100823.34;1785447;80;21025;-90
2021/10/23 04:55:50;;;;;;;56.48;43.17;;;;;;;11.08;100.00;100829.03;1757948;79;21007;-89
2021/10/23 04:58:17;;;;;;;56.55;42.88;;;;;;;11.08;100.00;100825.12;1753600;80;21131;-88
2021/10/23 05:00:44;;;;;;;52.03;42.50;;;;;;;11.10;100.00;100831.03;1774347;80;21534;-89
2021/10/23 05:03:11;;;;;;;51.13;41.68;;;;;;;11.11;100.00;100841.37;1753387;80;21054;-89
2021/10/23 05:05:38;;;;;;;55.78;41.73;;;;;;;11.12;100.00;100840.87;1776779;80;21026;-91
2021/10/23 05:08:06;;;;;;;48.87;40.48;;;;;;;11.14;100.00;100842.91;1729302;81;21593;-95
2021/10/23 05:10:35;;;;;;;48.02;38.90;;;;;;;11.17;100.00;100854.42;1761174;80;21464;-96
2021/10/23 05:13:02;;;;;;;48.42;37.65;;;;;;;11.20;100.00;100859.39;1788361;78;21035;-96
2021/10/23 05:15:30;;;;;;;44.75;37.15;;;;;;;11.23;100.00;100869.60;1802900;79;21059;-95
2021/10/23 05:17:57;;;;;;;46.05;35.52;;;;;;;11.25;100.00;100859.05;1756241;80;21182;-96
2021/10/23 05:20:26;;;;;;;43.75;35.50;;;;;;;11.26;100.00;100861.53;1771752;80;21050;-91
2021/10/23 05:22:53;;;;;;;45.10;36.38;;;;;;;11.27;100.00;100863.20;1774906;80;21154;-92
2021/10/23 05:25:20;;;;;;;43.45;35.30;;;;;;;11.30;100.00;100869.95;1771353;78;21533;-96
2021/10/23 05:27:47;;;;;;;44.03;34.13;;;;;;;11.31;100.00;100884.20;1773177;80;21021;-96
2021/10/23 05:30:14;;;;;;;43.38;34.83;;;;;;;11.35;100.00;100886.92;1813941;78;21096;-95
2021/10/23 05:32:42;;;;;;;46.20;35.35;;;;;;;11.38;100.00;100893.69;1788084;78;21133;-96
2021/10/23 05:35:10;;;;;;;52.78;35.90;;;;;;;11.40;100.00;100890.98;1771601;80;21099;-96
2021/10/23 05:37:38;;;;;;;50.38;36.33;;;;;;;11.43;100.00;100894.65;1776168;79;21009;-95
2021/10/23 05:40:07;;;;;;;48.28;34.75;;;;;;;11.44;100.00;100893.25;1780972;80;21081;-96
2021/10/23 05:42:34;;;;;;;45.58;35.98;;;;;;;11.48;100.00;100899.89;1779751;78;21526;-95
2021/10/23 05:45:03;;;;;;;40.15;34.45;;;;;;;11.52;100.00;100895.27;1753479;80;21113;-96
2021/10/23 05:47:30;;;;;;;45.58;34.80;;;;;;;11.54;100.00;100914.73;1747468;79;21190;-96
2021/10/23 05:49:57;;;;;;;43.80;34.60;;;;;;;11.55;100.00;100924.20;1769185;81;20992;-96
2021/10/23 05:52:25;;;;;;;42.15;34.27;;;;;;;11.55;100.00;100919.83;1769052;81;21039;-96
2021/10/23 05:54:54;;;;;;;41.83;34.18;;;;;;;11.59;100.00;100906.91;1769104;81;21011;-96
2021/10/23 05:57:21;;;;;;;41.00;33.90;;;;;;;11.63;100.00;100919.24;1769236;81;21659;-96
2021/10/23 05:59:48;;;;;;;39.03;31.45;;;;;;;11.66;100.00;100918.53;1775583;79;21048;-94
2021/10/23 06:04:53;;;;;;;42.25;32.35;;;;;;;11.73;100.00;100929.84;1781101;78;21002;-96
2021/10/23 06:07:22;;;;;;;;;;;;;;;11.74;100.00;100908.84;1781897;78;22600;-93
2021/10/23 06:09:52;;;;;;;38.00;30.43;;;;;;;11.74;100.00;100922.34;1771100;78;20647;-92
2021/10/23 06:12:20;;;;;;;39.48;31.40;;;;;;;11.75;100.00;100918.34;1744080;80;21109;-95
2021/10/23 06:14:49;;;;;;;40.48;31.87;;;;;;;11.76;100.00;100913.48;1742726;81;21167;-96
2021/10/23 06:17:16;;;;;;;38.65;32.73;;;;;;;11.79;100.00;100914.53;1721879;82;21081;-96
2021/10/23 06:19:46;;;;;;;39.65;32.78;;;;;;;11.81;100.00;100901.39;1734114;80;21109;-94
2021/10/23 06:22:13;;;;;;;40.85;32.00;;;;;;;11.83;100.00;100913.83;1731520;82;21086;-96
2021/10/23 06:24:42;;;;;;;40.08;33.18;;;;;;;11.87;100.00;100926.17;1731427;82;21026;-95
2021/10/23 06:27:09;;;;;;;41.42;34.48;;;;;;;11.88;100.00;100948.25;1739856;81;21006;-96
2021/10/23 06:29:37;;;;;;;39.55;32.38;;;;;;;11.89;100.00;100934.72;1742469;81;22052;-96
2021/10/23 06:32:05;;;;;;;39.98;32.03;;;;;;;11.91;100.00;100944.09;1713709;81;21061;-94
2021/10/23 06:34:33;;;;;;;40.38;32.53;;;;;;;11.94;100.00;100945.17;1713347;82;21093;-91
2021/10/23 06:37:00;;;;;;;48.42;34.73;;;;;;;11.95;100.00;100952.06;1708347;81;21166;-91
2021/10/23 06:39:28;;;;;;;41.80;34.50;;;;;;;11.94;100.00;100949.09;1656828;83;21042;-93
2021/10/23 06:41:56;;;;;;;47.33;36.17;;;;;;;11.92;100.00;100935.80;1744931;79;21052;-93
2021/10/23 06:44:23;;;;;;;43.92;35.08;;;;;;;11.87;100.00;100933.54;1773993;80;21060;-95
2021/10/23 06:46:51;;;;;;;39.98;33.60;;;;;;;11.87;100.00;100933.99;1774342;80;21486;-95
2021/10/23 06:49:19;;;;;;;41.23;35.35;;;;;;;11.86;100.00;100927.95;1774372;79;21072;-94
2021/10/23 06:51:47;;;;;;;47.78;34.67;;;;;;;11.85;100.00;100927.59;1743945;80;21017;-94
2021/10/23 06:54:14;;;;;;;46.42;35.00;;;;;;;11.85;100.00;100917.16;1774168;79;21020;-95
2021/10/23 06:56:42;;;;;;;63.38;41.08;;;;;;;11.87;100.00;100937.45;1774001;80;21041;-95
2021/10/23 06:59:11;;;;;;;44.98;35.83;;;;;;;11.90;100.00;100922.85;1774128;80;20931;-95
2021/10/23 07:01:39;;;;;;;48.87;37.05;;;;;;;11.95;100.00;100920.74;1774385;80;21100;-95
2021/10/23 07:04:07;;;;;;;46.75;36.83;;;;;;;12.00;100.00;100925.64;1743613;80;21028;-93
2021/10/23 07:06:34;;;;;;;50.12;38.35;;;;;;;12.06;100.00;100931.70;1744254;80;21534;-96
2021/10/23 07:09:01;;;;;;;45.28;35.33;;;;;;;12.10;100.00;100908.31;1743952;80;21060;-96
2021/10/23 07:11:30;;;;;;;63.15;44.55;;;;;;;12.17;100.00;100913.08;1744011;80;21034;-96
2021/10/23 07:13:58;;;;;;;58.08;42.83;;;;;;;12.22;100.00;100903.10;1744316;80;21534;-93
2021/10/23 07:16:28;;;;;;;46.90;38.67;;;;;;;12.27;100.00;100922.69;1774283;79;21515;-95
2021/10/23 07:18:55;;;;;;;51.88;37.98;;;;;;;12.34;100.00;100923.52;1744523;80;21515;-94
2021/10/23 07:21:24;;;;;;;46.77;38.02;;;;;;;12.40;100.00;100921.72;1774594;79;21507;-95
2021/10/23 07:23:53;;;;;;;53.38;37.73;;;;;;;12.46;100.00;100923.84;1774586;79;21150;-95
2021/10/23 07:26:21;;;;;;;45.00;36.05;;;;;;;12.55;100.00;100913.98;1743962;80;21201;-89
2021/10/23 07:28:50;;;;;;;48.17;36.53;;;;;;;12.61;100.00;100914.83;1774148;79;21112;-96
2021/10/23 07:31:21;;;;;;;46.77;38.48;;;;;;;12.67;100.00;100923.12;1774326;79;21729;-94
2021/10/23 07:33:48;;;;;;;50.00;37.90;;;;;;;12.69;100.00;100919.44;1744103;79;21009;-94
2021/10/23 07:36:17;;;;;;;54.53;39.20;;;;;;;12.71;100.00;100920.61;1774278;79;21005;-95
2021/10/23 07:38:45;;;;;;;49.33;38.65;;;;;;;12.75;100.00;100922.86;1771909;78;21056;-94
2021/10/23 07:41:12;;;;;;;49.95;37.25;;;;;;;12.79;100.00;100920.83;1771076;79;21037;-95
2021/10/23 07:43:39;;;;;;;47.80;38.30;;;;;;;12.78;100.00;100929.16;1771196;79;21100;-95
2021/10/23 07:46:06;;;;;;;47.25;37.75;;;;;;;12.74;100.00;100904.70;1770805;81;21088;-95
2021/10/23 07:48:35;;;;;;;49.03;38.50;;;;;;;12.72;100.00;100911.36;1771396;81;21593;-94
2021/10/23 07:51:06;;;;;;;50.92;38.98;;;;;;;12.69;100.00;100922.05;1770736;79;21198;-95
2021/10/23 07:53:34;;;;;;;51.00;38.20;;;;;;;12.65;100.00;100928.94;1771037;79;21096;-96
2021/10/23 07:56:01;;;;;;;43.38;36.28;;;;;;;12.63;100.00;100919.92;1743338;80;21072;-94
2021/10/23 07:58:30;;;;;;;46.15;36.90;;;;;;;12.65;100.00;100931.55;1744206;80;21033;-95
2021/10/23 08:00:58;;;;;;;52.17;38.05;;;;;;;12.66;100.00;100931.91;1771252;79;21507;-95
2021/10/23 08:03:25;;;;;;;45.95;36.30;;;;;;;12.62;100.00;100945.20;1771468;80;21795;-92
2021/10/23 08:05:52;;;;;;;49.65;37.13;;;;;;;12.58;100.00;100946.87;1770814;79;21645;-96
2021/10/23 08:08:19;;;;;;;48.87;37.38;;;;;;;12.54;100.00;100965.05;1771615;79;21016;-92
2021/10/23 08:10:46;;;;;;;51.18;38.98;;;;;;;12.50;100.00;100970.17;1771129;79;21384;-94
2021/10/23 08:13:13;;;;;;;49.88;39.70;;;;;;;12.49;100.00;100980.27;1771953;80;21144;-94
2021/10/23 08:15:43;;;;;;;53.58;39.80;;;;;;;12.49;100.00;100971.94;1771234;79;21531;-94
2021/10/23 08:18:11;;;;;;;46.95;37.48;;;;;;;12.51;100.00;100967.44;1771316;79;21049;-94
2021/10/23 08:20:40;;;;;;;46.77;37.03;;;;;;;12.50;100.00;100970.17;1771093;79;21076;-93
2021/10/23 08:23:08;;;;;;;49.93;37.17;;;;;;;12.51;100.00;100975.73;1744297;80;21100;-94
2021/10/23 08:25:35;;;;;;;47.95;36.75;;;;;;;12.52;100.00;100972.17;1770838;81;21060;-94
2021/10/23 08:28:06;;;;;;;42.65;35.68;;;;;;;12.53;100.00;100973.83;1771303;81;21103;-88
2021/10/23 08:30:34;;;;;;;42.93;33.58;;;;;;;12.56;100.00;100962.67;1770966;81;21052;-95
2021/10/23 08:33:04;;;;;;;42.05;32.25;;;;;;;12.61;100.00;100952.71;1771157;80;21644;-94
2021/10/23 08:35:33;;;;;;;45.67;32.70;;;;;;;12.71;100.00;100944.97;1771129;79;21546;-94
2021/10/23 08:38:00;;;;;;;46.73;32.08;;;;;;;12.81;100.00;100943.76;1746532;79;21123;-95
2021/10/23 08:40:27;;;;;;;38.08;30.00;;;;;;;12.90;100.00;100940.41;1782577;79;21111;-94
2021/10/23 08:42:56;;;;;;;40.73;31.17;;;;;;;12.98;100.00;100930.64;1782538;79;21001;-95
2021/10/23 08:45:26;;;;;;;46.50;34.13;;;;;;;13.05;100.00;100920.07;1782771;80;21056;-94
2021/10/23 08:47:57;;;;;;;46.58;34.95;;;;;;;13.14;100.00;100927.63;1751756;80;21961;-93
2021/10/23 08:50:26;;;;;;;46.68;35.35;;;;;;;13.21;100.00;100937.12;1782582;79;20973;-95
2021/10/23 08:52:58;;;;;;;49.08;35.98;;;;;;;13.26;100.00;100942.31;1751953;80;21459;-94
2021/10/23 08:55:23;;;;;;;47.08;33.95;;;;;;;13.32;100.00;100944.09;1778202;80;21695;-96
2021/10/23 08:57:51;;;;;;;48.95;35.63;;;;;;;13.40;100.00;100945.63;1782596;79;20989;-94
2021/10/23 09:00:19;;;;;;;46.90;35.15;;;;;;;13.47;100.00;100950.71;1782559;79;21075;-95
2021/10/23 09:02:48;;;;;;;45.63;34.75;;;;;;;13.55;100.00;100946.14;1782336;79;21123;-96
2021/10/23 09:05:18;;;;;;;46.60;36.75;;;;;;;13.62;100.00;100959.55;1782712;79;21068;-95
2021/10/23 09:07:51;;;;;;;49.55;37.00;;;;;;;13.67;100.00;100956.92;1782796;79;21004;-96
2021/10/23 09:10:26;;;;;;;46.00;35.08;;;;;;;13.69;100.00;100953.70;1782470;79;21124;-94
2021/10/23 09:13:07;;;;;;;48.83;35.03;;;;;;;13.68;100.00;100953.34;1782659;79;21056;-95
2021/10/23 09:15:42;;;;;;;45.45;36.23;;;;;;;13.66;100.00;100949.20;1782524;79;21041;-95
2021/10/23 09:18:09;;;;;;;51.85;35.28;;;;;;;13.66;100.00;100954.44;1782477;79;21105;-95
2021/10/23 09:20:42;;;;;;;41.92;32.53;;;;;;;13.65;100.00;100955.39;1782374;79;21079;-96
2021/10/23 09:23:19;;;;;;;45.90;32.45;;;;;;;13.73;100.00;100956.89;1782821;79;21013;-91
2021/10/23 09:25:47;;;;;;;44.38;33.38;;;;;;;13.73;100.00;100956.89;1782229;79;21000;-95
2021/10/23 09:28:18;;;;;;;44.53;31.33;;;;;;;13.79;100.00;100947.22;1782856;79;21060;-95
2021/10/23 09:30:49;;;;;;;42.65;31.70;;;;;;;13.85;100.00;100936.72;1782472;79;21080;-95
2021/10/23 09:33:19;;;;;;;39.70;31.25;;;;;;;13.91;100.00;100944.05;1782655;79;22872;-95
2021/10/23 09:35:55;;;;;;;47.60;34.00;;;;;;;13.98;100.00;100946.49;1782295;79;21110;-96
2021/10/23 09:38:26;;;;;;;44.00;33.75;;;;;;;14.06;100.00;100953.69;1778313;78;21522;-96
2021/10/23 09:40:57;;;;;;;46.58;33.40;;;;;;;14.13;100.00;100952.69;1771034;79;46319;-96
2021/10/23 09:43:32;;;;;;;43.90;31.80;;;;;;;14.19;100.00;100953.02;1771103;79;21112;-96
2021/10/23 09:46:00;;;;;;;44.85;32.50;;;;;;;14.26;100.00;100953.30;1770673;79;21502;-94
2021/10/23 09:48:44;;;;;;;41.30;29.92;;;;;;;14.35;100.00;100949.89;1770736;79;21814;-94
2021/10/23 09:51:25;;;;;;;45.90;32.80;;;;;;;14.45;100.00;100947.33;1771363;79;21122;-93
2021/10/23 09:54:01;;;;;;;42.33;31.80;;;;;;;14.57;100.00;100949.83;1771372;79;20950;-94
2021/10/23 09:56:33;;;;;;;44.03;30.32;;;;;;;14.68;100.00;100948.46;1771204;79;21661;-91
2021/10/23 09:59:09;;;;;;;39.35;30.30;;;;;;;14.71;100.00;100956.03;1766339;79;21021;-92
2021/10/23 10:01:40;;;;;;;40.63;29.37;;;;;;;14.68;100.00;100956.33;1727439;81;21161;-94
2021/10/23 10:04:10;;;;;;;46.40;30.68;;;;;;;14.63;100.00;100953.22;1706684;82;21050;-93
2021/10/23 10:06:43;;;;;;;45.80;33.33;;;;;;;14.58;100.00;100954.11;1726343;81;21110;-91
2021/10/23 10:09:13;;;;;;;47.85;33.38;;;;;;;14.53;100.00;100953.20;1726807;81;21157;-93
2021/10/23 10:11:41;;;;;;;49.55;33.70;;;;;;;14.50;100.00;100958.23;1726825;81;21015;-92
2021/10/23 10:14:13;;;;;;;48.08;33.85;;;;;;;14.48;100.00;100962.77;1726781;81;21069;-93
2021/10/23 10:16:45;;;;;;;44.50;29.30;;;;;;;14.48;100.00;100961.45;1726568;83;21016;-94
2021/10/23 10:19:14;;;;;;;47.00;30.92;;;;;;;14.49;100.00;100959.69;1727002;81;21086;-94
2021/10/23 10:21:42;;;;;;;45.85;29.70;;;;;;;14.48;100.00;100958.02;1726687;82;21599;-89
2021/10/23 10:24:26;;;;;;;43.52;29.37;;;;;;;14.48;100.00;100954.91;1726930;81;21105;-92
2021/10/23 10:27:11;;;;;;;49.73;31.62;;;;;;;14.51;100.00;100950.72;1701858;82;21515;-94
2021/10/23 10:29:54;;;;;;;43.68;30.37;;;;;;;14.54;100.00;100956.67;1726738;81;21454;-93
2021/10/23 10:32:35;;;;;;;40.92;27.77;;;;;;;14.58;100.00;100952.31;1726502;81;21007;-93
2021/10/23 10:43:18;;;;;;;25.45;17.92;;;;;;;14.71;100.00;100952.10;1719001;81;21049;-92
2021/10/23 10:45:54;;;;;;;28.70;18.07;;;;;;;14.75;100.00;100945.64;1758515;80;21133;-91
2021/10/23 10:48:36;;;;;;;26.07;15.58;;;;;;;14.77;100.00;100948.97;1747494;80;21111;-92
2021/10/23 10:51:14;;;;;;;23.18;14.85;;;;;;;14.77;100.00;100958.14;1724280;81;21950;-90
2021/10/23 10:53:51;;;;;;;21.25;12.88;;;;;;;14.76;100.00;100960.42;1730871;82;21107;-93
2021/10/23 10:56:20;;;;;;;20.45;13.58;;;;;;;14.75;100.00;100957.44;1730920;82;21043;-89
2021/10/23 10:58:58;;;;;;;16.52;12.47;;;;;;;14.75;100.00;100963.15;1731228;82;21047;-88
2021/10/23 11:01:32;;;;;;;19.40;12.07;;;;;;;14.74;100.00;100959.71;1730673;82;21083;-93
2021/10/23 11:04:08;;;;;;;18.70;11.57;;;;;;;14.72;99.96;100957.70;1710334;82;21734;-94
2021/10/23 11:06:49;;;;;;;27.30;16.17;;;;;;;14.70;98.03;100978.45;1730532;82;21030;-94
2021/10/23 11:09:25;;;;;;;21.93;14.15;;;;;;;14.67;92.12;100980.38;1730738;82;21071;-94
2021/10/23 11:11:59;;;;;;;21.33;13.48;;;;;;;14.65;92.94;100973.58;1706724;82;21012;-92
2021/10/23 11:14:36;;;;;;;22.73;13.25;;;;;;;14.60;89.54;100985.77;1730442;82;22173;-93
2021/10/23 11:17:15;;;;;;;19.32;12.25;;;;;;;14.57;86.52;100978.66;1730933;82;21087;-94
2021/10/23 11:19:54;;;;;;;18.17;12.03;;;;;;;14.53;88.87;100973.34;1745081;81;21044;-91
2021/10/23 11:22:32;;;;;;;17.30;12.00;;;;;;;14.46;85.49;100992.69;1730389;81;21650;-93
2021/10/23 11:25:10;;;;;;;18.85;12.28;;;;;;;14.35;79.84;100986.57;1720301;82;21426;-92
2021/10/23 11:27:47;;;;;;;16.17;11.70;;;;;;;14.27;82.62;100971.17;1772282;80;21068;-92
2021/10/23 11:30:30;;;;;;;17.30;10.80;;;;;;;14.19;90.19;100983.13;1734385;81;21071;-91
2021/10/23 11:33:05;;;;;;;15.40;11.78;;;;;;;14.16;90.72;100982.06;1711594;82;21024;-91